CheckWX is a tool to help pilots better visualize weather data.  It is not intended as a substitute for an official pre-flight weather briefing.

02:54:24 UTC

KGNV TAF
Gainesville Regional Airport
Gainesville, Florida, USA
KGNV 250541Z 2506/2606 10011KT P6SM SCT030 BKN200 FM251300 09006KT P6SM VCSH SCT025 OVC040 FM251800 08012G18KT 5SM -SHRA VCTS SCT020 OVC030CB FM252300 07010KT P6SM VCTS SCT030CB OVC050

May-25@
06:00 UTC

May-25 @ 06:00 UTC

May-25@
13:00 UTC

May-25 @ 13:00 UTC

TAF KGNV 250541Z 2506/2606 10011KT P6SM SCT030 BKN200

Expired

Wind
  • 100° at 11 KTS
Cloud Levels
  • Scattered at 3,000' AGL
  • Broken at 20,000' AGL

May-25@
13:00 UTC

May-25 @ 13:00 UTC

May-25@
18:00 UTC

May-25 @ 18:00 UTC

FM251300 09006KT P6SM VCSH SCT025 OVC040

Expired

Wind
  • 090° at 6 KTS
Conditions
Area Showers
Cloud Levels
  • Scattered at 2,500' AGL
  • Overcast at 4,000' AGL

May-25@
18:00 UTC

May-25 @ 18:00 UTC

May-25@
23:00 UTC

May-25 @ 23:00 UTC

FM251800 08012G18KT 5SM -SHRA VCTS SCT020 OVC030CB

Expired

Wind
  • 080° at 12 KTS
  • {Gusting to 18 KTS
Conditions
Light Showers, Rain, Area Thunderstorm
Cloud Levels
  • Scattered at 2,000' AGL
  • Overcast at 3,000' AGL

May-25@
23:00 UTC

May-25 @ 23:00 UTC

May-26@
06:00 UTC

May-26 @ 06:00 UTC

FM252300 07010KT P6SM VCTS SCT030CB OVC050

From

From Standard forecast or significant change

Wind
  • 070° at 10 KTS
Conditions
Area Thunderstorm
Cloud Levels
  • Scattered at 3,000' AGL
  • Overcast at 5,000' AGL